Terminal Aerodrome Forecast
Issued by NWS

Home | Current Version | Previous Version | Text Only | Print | Product List | Glossary On
Versions: 1 2 3 4 5 6 7 8 9 10 11 12 13 14 15 16 17 18 19 20 21 22 23 24 25 26 27 28 29 30 31 32 33 34 35 36 37 38 39 40 41 42 43 44
101
FTUS46 KOTX 162111 AAA
TAFSFF
TAF AMD
KSFF 162111Z 1621/1718 VRB03KT 3SM BR VCSH OVC007
      TEMPO 1621/1701 2SM -SN BR OVC005
     FM170900 23002KT 6SM BR OVC012
     FM171200 23002KT 5SM BR OVC007=

USA.gov is the U.S. government's official web portal to all federal, state and local government web resources and services.